createdAt,value
2023-01-03T00:01:26.243Z,5.10
2023-01-03T00:03:56.136Z,5.37
2023-01-03T00:06:26.652Z,6.33
2023-01-03T00:08:55.864Z,6.40
2023-01-03T00:11:41.342Z,6.57
2023-01-03T00:14:09.751Z,5.30
2023-01-03T00:16:37.830Z,5.20
2023-01-03T00:19:08.099Z,5.27
2023-01-03T00:21:36.762Z,4.73
2023-01-03T00:24:05.389Z,4.53
2023-01-03T00:26:35.083Z,5.20
2023-01-03T00:29:03.125Z,4.50
2023-01-03T00:31:31.195Z,4.20
2023-01-03T00:33:59.322Z,4.87
2023-01-03T00:36:27.329Z,4.73
2023-01-03T00:38:55.359Z,4.97
2023-01-03T00:41:23.408Z,4.83
2023-01-03T00:43:52.841Z,4.80
2023-01-03T00:46:21.912Z,5.33
2023-01-03T00:48:50.576Z,5.03
2023-01-03T00:51:20.429Z,5.33
2023-01-03T00:53:49.647Z,5.23
2023-01-03T00:56:19.899Z,5.07
2023-01-03T00:58:48.678Z,5.17
2023-01-03T01:01:20.578Z,5.30
2023-01-03T01:03:50.896Z,5.10
2023-01-03T01:06:21.344Z,5.83
2023-01-03T01:08:51.256Z,5.53
2023-01-03T01:11:20.269Z,5.37
2023-01-03T01:13:48.870Z,5.90
2023-01-03T01:16:21.385Z,5.53
2023-01-03T01:18:53.681Z,5.73
2023-01-03T01:21:24.607Z,5.33
2023-01-03T01:23:53.236Z,5.83
2023-01-03T01:26:23.459Z,5.67
2023-01-03T01:28:52.107Z,5.40
2023-01-03T01:31:23.975Z,5.43
2023-01-03T01:33:52.705Z,5.27
2023-01-03T01:36:22.688Z,5.13
2023-01-03T01:38:57.285Z,5.27
2023-01-03T01:41:39.688Z,4.77
2023-01-03T01:44:26.370Z,5.07
2023-01-03T01:46:56.099Z,5.10
2023-01-03T01:49:27.209Z,5.23
2023-01-03T01:51:55.388Z,4.90
2023-01-03T01:54:23.547Z,4.87
2023-01-03T01:56:54.464Z,4.37
2023-01-03T01:59:22.611Z,4.20
2023-01-03T02:01:52.702Z,4.30
2023-01-03T02:04:25.603Z,4.13
2023-01-03T02:06:54.199Z,4.77
2023-01-03T02:09:22.454Z,4.57
2023-01-03T02:12:15.455Z,3.90
2023-01-03T02:14:56.182Z,3.90
2023-01-03T02:17:35.305Z,4.40
2023-01-03T02:20:39.414Z,4.20
2023-01-03T02:23:51.117Z,3.80
2023-01-03T02:26:49.686Z,4.03
2023-01-03T02:29:56.635Z,4.97
2023-01-03T02:32:36.284Z,4.23
2023-01-03T02:35:10.656Z,4.13
2023-01-03T02:37:42.734Z,4.20
2023-01-03T02:40:19.596Z,4.50
2023-01-03T02:43:02.127Z,4.07
2023-01-03T02:45:43.138Z,4.27
2023-01-03T02:48:16.932Z,3.87
2023-01-03T02:50:49.829Z,4.63
2023-01-03T02:53:32.275Z,4.37
2023-01-03T02:56:05.995Z,4.10
2023-01-03T02:58:37.491Z,3.90
2023-01-03T03:01:07.959Z,4.03
2023-01-03T03:03:39.727Z,4.37
2023-01-03T03:06:14.151Z,4.43
2023-01-03T03:08:46.028Z,4.23
2023-01-03T03:11:32.215Z,4.10
2023-01-03T03:14:06.518Z,4.03
2023-01-03T03:16:51.106Z,3.93
2023-01-03T03:19:42.960Z,4.20
2023-01-03T03:22:34.694Z,4.00
2023-01-03T03:25:08.505Z,4.63
2023-01-03T03:27:56.327Z,4.57
2023-01-03T03:30:26.760Z,4.43
2023-01-03T03:32:59.641Z,4.23
2023-01-03T03:35:32.612Z,4.77
2023-01-03T03:38:03.044Z,4.60
2023-01-03T03:40:53.780Z,4.50
2023-01-03T03:43:48.236Z,4.67
2023-01-03T03:46:21.920Z,5.13
2023-01-03T03:49:16.691Z,5.50
2023-01-03T03:51:49.251Z,4.77
2023-01-03T03:54:20.435Z,4.73
2023-01-03T03:56:53.313Z,4.43
2023-01-03T03:59:23.821Z,4.83
2023-01-03T04:01:52.901Z,4.60
2023-01-03T04:04:25.676Z,4.70
2023-01-03T04:06:55.408Z,4.97
2023-01-03T04:09:23.505Z,5.30
2023-01-03T04:11:51.685Z,5.15
2023-01-03T04:14:21.425Z,5.60
2023-01-03T04:16:49.506Z,6.03
2023-01-03T04:19:17.610Z,5.97
2023-01-03T04:21:45.725Z,5.27
2023-01-03T04:24:15.117Z,5.97
2023-01-03T04:26:43.189Z,6.53
2023-01-03T04:29:11.194Z,6.63
2023-01-03T04:31:39.274Z,7.07
2023-01-03T04:34:07.442Z,6.70
2023-01-03T04:36:35.546Z,7.57
2023-01-03T04:39:03.568Z,7.37
2023-01-03T04:41:33.001Z,7.20
2023-01-03T04:44:02.763Z,8.40
2023-01-03T04:46:32.841Z,7.70
2023-01-03T04:49:01.066Z,8.00
2023-01-03T04:51:29.671Z,8.50
2023-01-03T04:53:57.752Z,7.70
2023-01-03T04:56:26.625Z,8.47
2023-01-03T04:58:56.133Z,9.90
2023-01-03T05:01:24.338Z,11.20
2023-01-03T05:03:52.672Z,11.97
2023-01-03T05:06:20.802Z,13.37
2023-01-03T05:08:50.136Z,12.47
2023-01-03T05:11:18.260Z,11.93
2023-01-03T05:13:46.359Z,12.03
2023-01-03T05:16:16.762Z,11.57
2023-01-03T05:18:47.090Z,10.87
2023-01-03T05:21:34.790Z,10.27
2023-01-03T05:24:20.368Z,10.43
2023-01-03T05:26:49.011Z,11.03
2023-01-03T05:29:21.048Z,10.77
2023-01-03T05:31:50.973Z,10.97
2023-01-03T05:34:19.095Z,11.57
2023-01-03T05:36:47.258Z,13.77
2023-01-03T05:39:15.335Z,12.27
2023-01-03T05:42:01.405Z,11.73
2023-01-03T05:44:30.533Z,11.53
2023-01-03T05:47:00.280Z,11.37
2023-01-03T05:49:28.701Z,12.17
2023-01-03T05:51:56.761Z,12.37
2023-01-03T05:54:24.819Z,11.23
2023-01-03T05:56:52.944Z,11.60
2023-01-03T05:59:21.220Z,11.47
2023-01-03T06:01:49.563Z,11.80
2023-01-03T06:04:19.266Z,12.47
2023-01-03T06:06:48.930Z,11.43
2023-01-03T06:09:17.142Z,11.93
2023-01-03T06:11:45.208Z,12.57
2023-01-03T06:14:13.311Z,13.20
2023-01-03T06:16:58.855Z,11.80
2023-01-03T06:19:28.355Z,11.63
2023-01-03T06:21:56.355Z,12.47
2023-01-03T06:24:24.399Z,11.33
2023-01-03T06:26:52.500Z,12.13
2023-01-03T06:29:20.523Z,11.77
2023-01-03T06:31:48.576Z,11.80
2023-01-03T06:34:16.691Z,12.33
2023-01-03T06:36:46.134Z,12.47
2023-01-03T06:39:14.318Z,12.00
2023-01-03T06:41:42.328Z,11.60
2023-01-03T06:44:11.356Z,11.80
2023-01-03T06:46:56.760Z,11.63
2023-01-03T06:49:41.993Z,12.23
2023-01-03T06:52:32.872Z,11.97
2023-01-03T06:55:00.925Z,11.63
2023-01-03T06:57:29.020Z,12.30
2023-01-03T06:59:57.117Z,12.70
2023-01-03T07:02:26.258Z,12.50
2023-01-03T07:04:54.505Z,11.80
2023-01-03T07:07:23.988Z,13.17
2023-01-03T07:09:52.099Z,11.87
2023-01-03T07:12:37.980Z,12.13
2023-01-03T07:15:06.830Z,12.40
2023-01-03T07:17:34.824Z,13.57
2023-01-03T07:20:02.971Z,14.13
2023-01-03T07:22:32.381Z,13.07
2023-01-03T07:25:00.425Z,15.47
2023-01-03T07:27:28.543Z,15.40
2023-01-03T07:29:56.606Z,14.00
2023-01-03T07:32:24.684Z,12.70
2023-01-03T07:34:52.697Z,14.53
2023-01-03T07:37:20.837Z,15.10
2023-01-03T07:39:50.224Z,15.80
2023-01-03T07:42:35.481Z,16.27
2023-01-03T07:45:03.627Z,16.43
2023-01-03T07:47:31.653Z,16.93
2023-01-03T07:49:59.674Z,17.80
2023-01-03T07:52:28.786Z,16.93
2023-01-03T07:54:58.235Z,18.20
2023-01-03T07:57:26.281Z,17.07
2023-01-03T07:59:54.285Z,17.47
2023-01-03T08:02:22.562Z,17.87
2023-01-03T08:04:50.791Z,18.60
2023-01-03T08:07:18.939Z,18.57
2023-01-03T08:10:04.204Z,18.63
2023-01-03T08:12:51.383Z,17.43
2023-01-03T08:15:19.384Z,17.47
2023-01-03T08:17:47.482Z,17.43
2023-01-03T08:20:15.651Z,18.37
2023-01-03T08:22:43.663Z,16.83
2023-01-03T08:25:11.843Z,18.10
2023-01-03T08:27:46.658Z,18.10
2023-01-03T08:30:18.044Z,17.63
2023-01-03T08:32:46.228Z,17.53
2023-01-03T08:35:16.092Z,19.40
2023-01-03T08:37:44.925Z,17.27
2023-01-03T08:40:16.163Z,19.37
2023-01-03T08:42:46.608Z,19.07
2023-01-03T08:45:17.671Z,19.13
2023-01-03T08:47:46.791Z,19.57
2023-01-03T08:50:15.781Z,18.73
2023-01-03T08:52:43.871Z,18.17
2023-01-03T08:55:12.150Z,18.90
2023-01-03T08:57:40.422Z,20.00
2023-01-03T09:00:11.598Z,19.53
2023-01-03T09:02:39.758Z,21.13
2023-01-03T09:05:09.287Z,20.00
2023-01-03T09:07:37.328Z,20.47
2023-01-03T09:10:06.078Z,19.83
2023-01-03T09:12:34.096Z,19.67
2023-01-03T09:15:02.234Z,20.00
2023-01-03T09:17:31.828Z,20.80
2023-01-03T09:19:59.897Z,19.83
2023-01-03T09:22:27.913Z,18.57
2023-01-03T09:24:56.361Z,20.40
2023-01-03T09:27:24.400Z,20.97
2023-01-03T09:29:53.237Z,20.30
2023-01-03T09:32:21.436Z,18.90
2023-01-03T09:34:50.852Z,20.57
2023-01-03T09:37:18.877Z,18.27
2023-01-03T09:39:46.940Z,18.17
2023-01-03T09:42:36.946Z,16.47
2023-01-03T09:45:06.445Z,15.60
2023-01-03T09:47:37.951Z,16.03
2023-01-03T09:50:29.374Z,14.80
2023-01-03T09:53:17.064Z,12.77
2023-01-03T09:56:10.430Z,13.20
2023-01-03T09:58:57.056Z,13.33
2023-01-03T10:01:55.701Z,13.13
2023-01-03T10:04:46.820Z,13.07
2023-01-03T10:07:29.979Z,13.37
2023-01-03T10:10:12.310Z,14.00
2023-01-03T10:12:55.085Z,13.27
2023-01-03T10:15:31.250Z,14.83
2023-01-03T10:18:08.429Z,15.10
2023-01-03T10:20:44.234Z,15.40
2023-01-03T10:23:14.215Z,14.07
2023-01-03T10:25:45.333Z,16.30
2023-01-03T10:28:18.418Z,16.27
2023-01-03T10:31:07.418Z,17.37
2023-01-03T10:33:41.262Z,16.50
2023-01-03T10:36:10.087Z,18.03
2023-01-03T10:38:47.847Z,16.10
2023-01-03T10:41:24.451Z,17.90
2023-01-03T10:43:59.316Z,20.50
2023-01-03T10:46:28.301Z,19.00
2023-01-03T10:49:26.727Z,20.23
2023-01-03T10:51:55.439Z,20.77
2023-01-03T10:54:31.022Z,22.57
2023-01-03T10:56:59.781Z,21.30
2023-01-03T10:59:30.033Z,21.97
2023-01-03T11:02:01.040Z,23.93
2023-01-03T11:04:30.831Z,24.23
2023-01-03T11:07:05.134Z,24.03
2023-01-03T11:09:50.966Z,23.17
2023-01-03T11:12:28.355Z,24.10
2023-01-03T11:14:58.559Z,23.43
2023-01-03T11:17:27.610Z,25.03
2023-01-03T11:19:57.479Z,23.77
2023-01-03T11:22:38.096Z,24.57
2023-01-03T11:25:21.300Z,25.00
2023-01-03T11:28:24.991Z,24.57
2023-01-03T11:31:00.392Z,24.33
2023-01-03T11:33:47.287Z,25.40
2023-01-03T11:36:29.424Z,25.10
2023-01-03T11:39:15.338Z,24.97
2023-01-03T11:42:01.603Z,26.53
2023-01-03T11:44:53.462Z,27.13
2023-01-03T11:47:29.019Z,26.63
2023-01-03T11:50:12.963Z,26.47
2023-01-03T11:52:48.412Z,26.67
2023-01-03T11:55:39.351Z,28.13
2023-01-03T11:58:50.463Z,27.47
2023-01-03T12:01:33.961Z,28.27
2023-01-03T12:04:23.878Z,27.83
2023-01-03T12:07:45.611Z,27.03
2023-01-03T12:10:00.208Z,28.77
2023-01-03T12:12:58.318Z,30.07
2023-01-03T12:15:36.976Z,28.50
2023-01-03T12:18:15.128Z,27.65
2023-01-03T12:20:49.552Z,26.47
2023-01-03T12:23:27.721Z,26.63
2023-01-03T12:25:59.689Z,25.35
2023-01-03T12:28:30.895Z,25.65
2023-01-03T12:31:04.412Z,24.80
2023-01-03T12:33:38.933Z,24.50
2023-01-03T12:36:22.057Z,25.50
2023-01-03T12:38:57.137Z,24.33
2023-01-03T12:41:32.809Z,24.67
2023-01-03T12:44:04.704Z,25.70
2023-01-03T12:46:38.961Z,23.67
2023-01-03T12:49:13.598Z,23.77
2023-01-03T12:51:41.706Z,22.88
2023-01-03T12:54:26.929Z,24.38
2023-01-03T12:57:26.725Z,24.23
2023-01-03T13:00:17.422Z,24.08
2023-01-03T13:02:52.906Z,23.52
2023-01-03T13:05:26.886Z,24.25
2023-01-03T13:08:05.693Z,23.00
2023-01-03T13:10:37.017Z,23.42
2023-01-03T13:13:06.269Z,24.05
2023-01-03T13:15:37.489Z,22.55
2023-01-03T13:18:33.780Z,23.20
2023-01-03T13:21:01.878Z,22.42
2023-01-03T13:23:36.667Z,23.17
2023-01-03T13:26:25.804Z,23.65
2023-01-03T13:29:14.752Z,23.10
2023-01-03T13:31:42.988Z,23.20
2023-01-03T13:34:34.775Z,22.38
2023-01-03T13:37:18.532Z,21.85
2023-01-03T13:40:01.581Z,23.17
2023-01-03T13:42:31.723Z,23.45
2023-01-03T13:45:37.177Z,21.55
2023-01-03T13:48:18.376Z,21.50
2023-01-03T13:51:26.035Z,19.35
2023-01-03T13:53:58.649Z,19.75
2023-01-03T13:56:29.320Z,17.55
2023-01-03T13:59:03.549Z,17.13
2023-01-03T14:01:48.858Z,16.77
2023-01-03T14:04:38.503Z,17.23
2023-01-03T14:07:25.503Z,15.02
2023-01-03T14:10:18.686Z,15.55
2023-01-03T14:13:17.397Z,14.55
2023-01-03T14:15:47.383Z,14.23
2023-01-03T14:18:22.339Z,13.50
2023-01-03T14:20:52.957Z,13.43
2023-01-03T14:23:59.133Z,13.90
2023-01-03T14:26:16.141Z,13.30
2023-01-03T14:28:49.640Z,14.70
2023-01-03T14:31:20.951Z,13.38
2023-01-03T14:33:54.721Z,13.95
2023-01-03T14:36:23.133Z,14.15
2023-01-03T14:38:54.464Z,15.05
2023-01-03T14:41:29.384Z,13.75
2023-01-03T14:44:02.443Z,13.63
2023-01-03T14:46:31.406Z,13.38
2023-01-03T14:49:03.863Z,14.35
2023-01-03T14:51:34.422Z,14.00
2023-01-03T14:54:05.272Z,14.48
2023-01-03T14:56:33.891Z,14.30
2023-01-03T14:59:02.653Z,13.57
2023-01-03T15:01:30.977Z,14.27
2023-01-03T15:04:01.606Z,18.05
2023-01-03T15:06:31.904Z,14.32
2023-01-03T15:09:01.827Z,15.63
2023-01-03T15:11:35.191Z,15.50
2023-01-03T15:14:06.098Z,14.38
2023-01-03T15:16:37.388Z,14.73
2023-01-03T15:19:13.503Z,14.57
2023-01-03T15:21:42.551Z,15.25
2023-01-03T15:24:16.755Z,13.82
2023-01-03T15:26:47.813Z,14.15
2023-01-03T15:29:17.790Z,13.50
2023-01-03T15:31:52.772Z,13.20
2023-01-03T15:34:22.367Z,12.95
2023-01-03T15:36:53.328Z,12.75
2023-01-03T15:39:24.034Z,11.98
2023-01-03T15:45:03.518Z,13.50
2023-01-03T15:47:32.470Z,12.18
2023-01-03T15:50:03.714Z,12.27
2023-01-03T15:52:31.806Z,12.55
2023-01-03T15:54:59.934Z,11.45
2023-01-03T15:57:31.357Z,13.40
2023-01-03T16:00:01.811Z,15.30
2023-01-03T16:02:33.317Z,13.18
2023-01-03T16:05:01.480Z,13.18
2023-01-03T16:07:29.555Z,12.15
2023-01-03T16:09:57.651Z,11.07
2023-01-03T16:12:34.088Z,11.02
2023-01-03T16:15:04.266Z,11.95
2023-01-03T16:17:33.377Z,11.88
2023-01-03T16:20:02.661Z,12.10
2023-01-03T16:22:35.784Z,11.88
2023-01-03T16:25:05.715Z,20.13
2023-01-03T16:27:35.462Z,19.90
2023-01-03T16:30:03.553Z,21.73
2023-01-03T16:32:31.959Z,10.82
2023-01-03T16:35:01.756Z,15.95
2023-01-03T16:37:30.115Z,12.73
2023-01-03T16:39:59.212Z,12.43
2023-01-03T16:42:28.599Z,16.20
2023-01-03T16:44:58.550Z,11.77
2023-01-03T16:47:31.659Z,11.43
2023-01-03T16:50:01.943Z,19.17
2023-01-03T16:52:34.474Z,11.90
2023-01-03T16:55:05.260Z,10.48
2023-01-03T16:57:33.371Z,10.93
2023-01-03T17:00:02.974Z,9.95
2023-01-03T17:02:31.062Z,9.70
2023-01-03T17:04:59.255Z,10.38
2023-01-03T17:07:27.264Z,9.88
2023-01-03T17:09:55.366Z,9.88
2023-01-03T17:12:25.026Z,8.95
2023-01-03T17:14:53.797Z,9.27
2023-01-03T17:17:24.417Z,9.63
2023-01-03T17:20:07.762Z,9.00
2023-01-03T17:22:36.075Z,8.68
2023-01-03T17:25:04.380Z,9.05
2023-01-03T17:27:33.696Z,8.15
2023-01-03T17:30:04.752Z,7.80
2023-01-03T17:32:34.910Z,7.55
2023-01-03T17:35:05.112Z,8.02
2023-01-03T17:37:51.428Z,7.63
2023-01-03T17:40:31.075Z,8.30
2023-01-03T17:43:01.777Z,7.97
2023-01-03T17:45:47.669Z,8.30
2023-01-03T17:48:34.571Z,8.23
2023-01-03T17:51:03.313Z,7.53
2023-01-03T17:53:31.522Z,10.18
2023-01-03T17:55:59.630Z,9.02
2023-01-03T17:58:32.482Z,8.90
2023-01-03T18:01:00.629Z,8.32
2023-01-03T18:03:31.026Z,9.02
2023-01-03T18:06:00.038Z,9.73
2023-01-03T18:08:28.080Z,11.13
2023-01-03T18:10:56.964Z,10.68
2023-01-03T18:13:27.185Z,10.50
2023-01-03T18:15:56.229Z,11.23
2023-01-03T18:18:26.387Z,9.85
2023-01-03T18:20:56.555Z,9.13
2023-01-03T18:23:28.205Z,10.38
2023-01-03T18:25:58.030Z,10.00
2023-01-03T18:28:27.946Z,11.05
2023-01-03T18:30:58.731Z,10.40
2023-01-03T18:33:27.199Z,10.95
2023-01-03T18:35:56.881Z,12.60
2023-01-03T18:38:28.791Z,10.93
2023-01-03T18:41:04.484Z,11.32
2023-01-03T18:43:33.815Z,12.10
2023-01-03T18:46:02.146Z,11.57
2023-01-03T18:48:30.359Z,11.25
2023-01-03T18:51:00.228Z,11.27
2023-01-03T18:53:32.155Z,12.00
2023-01-03T18:56:00.298Z,11.50
2023-01-03T18:58:33.131Z,11.13
2023-01-03T19:01:01.585Z,10.32
2023-01-03T19:03:31.862Z,10.82
2023-01-03T19:06:03.138Z,10.95
2023-01-03T19:08:34.018Z,10.60
2023-01-03T19:11:06.417Z,10.38
2023-01-03T19:13:50.527Z,9.95
2023-01-03T19:16:20.846Z,10.40
2023-01-03T19:18:50.852Z,8.80
2023-01-03T19:21:22.647Z,8.45
2023-01-03T19:23:58.245Z,9.25
2023-01-03T19:26:30.358Z,8.55
2023-01-03T19:29:01.981Z,7.85
2023-01-03T19:31:39.125Z,7.32
2023-01-03T19:34:15.554Z,7.15
2023-01-03T19:36:45.335Z,7.47
2023-01-03T19:39:13.850Z,7.47
2023-01-03T19:41:59.723Z,6.93
2023-01-03T19:44:28.277Z,7.15
2023-01-03T19:46:56.427Z,11.57
2023-01-03T19:49:24.692Z,7.05
2023-01-03T19:51:54.300Z,6.85
2023-01-03T19:54:22.408Z,7.30
2023-01-03T19:56:52.282Z,5.90
2023-01-03T19:59:26.886Z,7.00
2023-01-03T20:02:24.238Z,6.63
2023-01-03T20:04:45.067Z,6.20
2023-01-03T20:07:15.376Z,6.30
2023-01-03T20:09:43.470Z,6.10
2023-01-03T20:12:14.697Z,5.28
2023-01-03T20:14:45.123Z,5.53
2023-01-03T20:17:20.829Z,4.90
2023-01-03T20:19:49.186Z,5.35
2023-01-03T20:23:01.959Z,5.82
2023-01-03T20:25:18.232Z,4.75
2023-01-03T20:27:47.903Z,5.20
2023-01-03T20:30:17.472Z,6.38
2023-01-03T20:32:45.593Z,5.97
2023-01-03T20:35:56.409Z,4.53
2023-01-03T20:38:04.875Z,4.28
2023-01-03T20:40:32.995Z,4.45
2023-01-03T20:43:02.315Z,3.90
2023-01-03T20:45:31.954Z,4.07
2023-01-03T20:48:00.736Z,4.45
2023-01-03T20:50:30.064Z,5.72
2023-01-03T20:52:58.450Z,4.40
2023-01-03T20:55:28.186Z,4.38
2023-01-03T20:57:56.256Z,6.75
2023-01-03T21:00:28.040Z,4.32
2023-01-03T21:02:56.203Z,4.90
2023-01-03T21:05:24.923Z,4.07
2023-01-03T21:08:10.596Z,5.10
2023-01-03T21:10:42.013Z,4.57
2023-01-03T21:13:10.999Z,4.05
2023-01-03T21:15:39.435Z,3.90
2023-01-03T21:18:07.722Z,3.72
2023-01-03T21:20:35.848Z,3.85
2023-01-03T21:23:04.014Z,4.25
2023-01-03T21:25:33.756Z,3.78
2023-01-03T21:28:04.199Z,3.67
2023-01-03T21:30:33.606Z,3.60
2023-01-03T21:33:01.680Z,3.80
2023-01-03T21:35:29.772Z,3.20
2023-01-03T21:37:57.879Z,2.92
2023-01-03T21:40:27.823Z,3.05
2023-01-03T21:43:04.480Z,3.72
2023-01-03T21:45:36.496Z,3.80
2023-01-03T21:48:06.792Z,3.50
2023-01-03T21:50:36.229Z,3.25
2023-01-03T21:53:04.287Z,3.08
2023-01-03T21:55:32.543Z,2.90
2023-01-03T21:58:01.968Z,3.83
2023-01-03T22:00:30.110Z,3.17
2023-01-03T22:03:17.333Z,3.65
2023-01-03T22:05:45.459Z,4.05
2023-01-03T22:08:13.521Z,3.60
2023-01-03T22:10:42.262Z,4.10
2023-01-03T22:13:11.370Z,4.32
2023-01-03T22:15:40.332Z,4.05
2023-01-03T22:18:13.122Z,3.30
2023-01-03T22:20:41.227Z,4.60
2023-01-03T22:23:09.935Z,4.57
2023-01-03T22:25:37.925Z,3.47
2023-01-03T22:28:06.062Z,4.68
2023-01-03T22:30:34.115Z,3.65
2023-01-03T22:33:02.143Z,2.60
2023-01-03T22:35:31.614Z,3.60
2023-01-03T22:37:59.655Z,3.10
2023-01-03T22:40:27.733Z,3.45
2023-01-03T22:42:56.012Z,3.40
2023-01-03T22:45:24.105Z,3.15
2023-01-03T22:47:52.100Z,3.75
2023-01-03T22:50:20.296Z,2.60
2023-01-03T22:52:49.680Z,3.00
2023-01-03T22:55:17.819Z,4.47
2023-01-03T22:57:46.817Z,3.53
2023-01-03T23:00:15.579Z,4.20
2023-01-03T23:02:43.790Z,3.80
2023-01-03T23:05:11.954Z,3.25
2023-01-03T23:07:44.984Z,4.13
2023-01-03T23:10:14.715Z,3.17
2023-01-03T23:12:59.630Z,3.47
2023-01-03T23:15:29.920Z,2.72
2023-01-03T23:17:58.470Z,3.05
2023-01-03T23:20:28.933Z,2.97
2023-01-03T23:22:59.904Z,2.75
2023-01-03T23:25:30.170Z,2.58
2023-01-03T23:27:59.321Z,2.53
2023-01-03T23:30:27.477Z,2.70
2023-01-03T23:32:55.543Z,2.63
2023-01-03T23:35:23.559Z,2.63
2023-01-03T23:37:51.580Z,3.30
2023-01-03T23:40:19.769Z,2.65
2023-01-03T23:42:49.236Z,2.80
2023-01-03T23:45:17.442Z,2.58
2023-01-03T23:47:45.492Z,2.60
2023-01-03T23:50:13.514Z,2.58
2023-01-03T23:52:41.540Z,2.65
2023-01-03T23:55:12.904Z,2.63
2023-01-03T23:57:41.242Z,2.20
